Terminal Aerodrome Forecast
Issued by NWS Wichita, KS

Home | Current Version | Previous Version | Text Only | Print | Product List | Glossary On
Versions: 1 2 3 4 5 6 7 8 9 10 11 12 13 14 15 16 17
000
FTUS43 KICT 291140
TAFICT
TAF
KICT 291140Z 2912/3012 17017KT P6SM BKN150 WS015/19040KT
     FM291500 32007KT P6SM OVC150
     FM291700 35022G30KT P6SM OVC130
     FM292200 36013KT P6SM BKN200
     FM300000 36009KT P6SM SKC=

USA.gov is the U.S. government's official web portal to all federal, state and local government web resources and services.